sensor_id;sensor_type;location;lat;lon;timestamp;P1;durP1;ratioP1;P2;durP2;ratioP2
32347;SDS011;18821;44.800;10.326;2023-07-31T00:01:49;9.32;;;6.60;;
32347;SDS011;18821;44.800;10.326;2023-07-31T00:04:15;12.05;;;6.18;;
32347;SDS011;18821;44.800;10.326;2023-07-31T00:06:41;10.32;;;5.88;;
32347;SDS011;18821;44.800;10.326;2023-07-31T00:09:07;12.35;;;6.25;;
32347;SDS011;18821;44.800;10.326;2023-07-31T00:11:33;8.65;;;5.95;;
32347;SDS011;18821;44.800;10.326;2023-07-31T00:13:59;7.40;;;5.70;;
32347;SDS011;18821;44.800;10.326;2023-07-31T00:16:25;10.07;;;5.90;;
32347;SDS011;18821;44.800;10.326;2023-07-31T00:18:51;9.77;;;6.70;;
32347;SDS011;18821;44.800;10.326;2023-07-31T00:21:17;14.57;;;7.85;;
32347;SDS011;18821;44.800;10.326;2023-07-31T00:23:43;13.57;;;7.32;;
32347;SDS011;18821;44.800;10.326;2023-07-31T00:26:09;15.85;;;7.75;;
32347;SDS011;18821;44.800;10.326;2023-07-31T00:28:35;8.55;;;6.32;;
32347;SDS011;18821;44.800;10.326;2023-07-31T00:31:01;7.50;;;6.30;;
32347;SDS011;18821;44.800;10.326;2023-07-31T00:33:29;13.55;;;6.50;;
32347;SDS011;18821;44.800;10.326;2023-07-31T00:35:56;10.55;;;5.55;;
32347;SDS011;18821;44.800;10.326;2023-07-31T00:38:22;9.20;;;5.70;;
32347;SDS011;18821;44.800;10.326;2023-07-31T00:40:48;9.27;;;4.90;;
32347;SDS011;18821;44.800;10.326;2023-07-31T00:43:14;11.48;;;4.93;;
32347;SDS011;18821;44.800;10.326;2023-07-31T00:45:40;7.38;;;5.20;;
32347;SDS011;18821;44.800;10.326;2023-07-31T00:48:06;10.57;;;5.03;;
32347;SDS011;18821;44.800;10.326;2023-07-31T00:50:33;6.75;;;4.63;;
32347;SDS011;18821;44.800;10.326;2023-07-31T00:53:00;9.40;;;4.57;;
32347;SDS011;18821;44.800;10.326;2023-07-31T00:55:26;8.00;;;4.28;;
32347;SDS011;18821;44.800;10.326;2023-07-31T00:57:52;8.13;;;3.90;;
32347;SDS011;18821;44.800;10.326;2023-07-31T01:00:21;10.55;;;4.60;;
32347;SDS011;18821;44.800;10.326;2023-07-31T01:02:47;6.60;;;4.32;;
32347;SDS011;18821;44.800;10.326;2023-07-31T01:05:14;9.55;;;4.95;;
32347;SDS011;18821;44.800;10.326;2023-07-31T01:07:45;10.68;;;6.05;;
32347;SDS011;18821;44.800;10.326;2023-07-31T01:10:21;13.10;;;6.10;;
32347;SDS011;18821;44.800;10.326;2023-07-31T01:12:51;14.52;;;6.72;;
32347;SDS011;18821;44.800;10.326;2023-07-31T01:15:20;8.05;;;6.28;;
32347;SDS011;18821;44.800;10.326;2023-07-31T01:17:46;11.80;;;6.35;;
32347;SDS011;18821;44.800;10.326;2023-07-31T01:20:22;12.52;;;7.68;;
32347;SDS011;18821;44.800;10.326;2023-07-31T01:31:29;10.65;;;7.47;;
32347;SDS011;18821;44.800;10.326;2023-07-31T01:33:58;11.70;;;6.70;;
32347;SDS011;18821;44.800;10.326;2023-07-31T01:36:30;10.38;;;5.43;;
32347;SDS011;18821;44.800;10.326;2023-07-31T01:39:00;8.98;;;5.82;;
32347;SDS011;18821;44.800;10.326;2023-07-31T01:41:27;10.93;;;5.32;;
32347;SDS011;18821;44.800;10.326;2023-07-31T01:43:53;13.40;;;5.35;;
32347;SDS011;18821;44.800;10.326;2023-07-31T01:46:19;7.90;;;5.38;;
32347;SDS011;18821;44.800;10.326;2023-07-31T01:48:45;11.55;;;5.75;;
32347;SDS011;18821;44.800;10.326;2023-07-31T01:51:11;8.68;;;4.68;;
32347;SDS011;18821;44.800;10.326;2023-07-31T01:53:37;8.55;;;4.72;;
32347;SDS011;18821;44.800;10.326;2023-07-31T01:56:03;6.68;;;5.03;;
32347;SDS011;18821;44.800;10.326;2023-07-31T01:58:30;9.02;;;5.00;;
32347;SDS011;18821;44.800;10.326;2023-07-31T02:00:55;13.82;;;4.60;;
32347;SDS011;18821;44.800;10.326;2023-07-31T02:03:21;5.90;;;4.20;;
32347;SDS011;18821;44.800;10.326;2023-07-31T02:05:48;9.68;;;4.80;;
32347;SDS011;18821;44.800;10.326;2023-07-31T02:08:15;11.18;;;5.25;;
32347;SDS011;18821;44.800;10.326;2023-07-31T02:10:42;9.93;;;5.43;;
32347;SDS011;18821;44.800;10.326;2023-07-31T02:13:08;13.68;;;6.75;;
32347;SDS011;18821;44.800;10.326;2023-07-31T02:15:34;13.57;;;7.18;;
32347;SDS011;18821;44.800;10.326;2023-07-31T02:18:01;9.75;;;6.40;;
32347;SDS011;18821;44.800;10.326;2023-07-31T02:20:27;11.50;;;5.72;;
32347;SDS011;18821;44.800;10.326;2023-07-31T02:22:53;11.10;;;6.18;;
32347;SDS011;18821;44.800;10.326;2023-07-31T02:25:20;9.57;;;6.15;;
32347;SDS011;18821;44.800;10.326;2023-07-31T02:27:46;9.13;;;6.60;;
32347;SDS011;18821;44.800;10.326;2023-07-31T02:30:13;9.85;;;6.60;;
32347;SDS011;18821;44.800;10.326;2023-07-31T02:32:39;14.23;;;6.90;;
32347;SDS011;18821;44.800;10.326;2023-07-31T02:35:05;8.85;;;6.95;;
32347;SDS011;18821;44.800;10.326;2023-07-31T02:37:32;9.60;;;7.00;;
32347;SDS011;18821;44.800;10.326;2023-07-31T02:39:59;10.98;;;7.30;;
32347;SDS011;18821;44.800;10.326;2023-07-31T02:42:27;10.25;;;6.93;;
32347;SDS011;18821;44.800;10.326;2023-07-31T02:44:53;9.27;;;7.75;;
32347;SDS011;18821;44.800;10.326;2023-07-31T02:47:21;12.10;;;7.88;;
32347;SDS011;18821;44.800;10.326;2023-07-31T02:49:48;15.48;;;9.52;;
32347;SDS011;18821;44.800;10.326;2023-07-31T02:52:13;12.13;;;8.95;;
32347;SDS011;18821;44.800;10.326;2023-07-31T02:54:40;15.63;;;9.23;;
32347;SDS011;18821;44.800;10.326;2023-07-31T02:57:06;9.00;;;7.65;;
32347;SDS011;18821;44.800;10.326;2023-07-31T02:59:32;11.43;;;8.85;;
32347;SDS011;18821;44.800;10.326;2023-07-31T03:01:58;10.30;;;7.95;;
32347;SDS011;18821;44.800;10.326;2023-07-31T03:04:25;12.95;;;8.30;;
32347;SDS011;18821;44.800;10.326;2023-07-31T03:06:51;10.32;;;8.02;;
32347;SDS011;18821;44.800;10.326;2023-07-31T03:09:16;10.18;;;8.43;;
32347;SDS011;18821;44.800;10.326;2023-07-31T03:11:43;15.05;;;8.65;;
32347;SDS011;18821;44.800;10.326;2023-07-31T03:14:09;11.23;;;8.10;;
32347;SDS011;18821;44.800;10.326;2023-07-31T03:16:34;12.05;;;8.70;;
32347;SDS011;18821;44.800;10.326;2023-07-31T03:19:00;11.75;;;8.60;;
32347;SDS011;18821;44.800;10.326;2023-07-31T03:21:26;12.75;;;9.18;;
32347;SDS011;18821;44.800;10.326;2023-07-31T03:23:53;11.77;;;8.63;;
32347;SDS011;18821;44.800;10.326;2023-07-31T03:26:19;11.82;;;8.02;;
32347;SDS011;18821;44.800;10.326;2023-07-31T03:28:45;13.50;;;9.98;;
32347;SDS011;18821;44.800;10.326;2023-07-31T03:31:10;13.23;;;9.55;;
32347;SDS011;18821;44.800;10.326;2023-07-31T03:33:36;12.13;;;9.43;;
32347;SDS011;18821;44.800;10.326;2023-07-31T03:36:02;13.10;;;9.75;;
32347;SDS011;18821;44.800;10.326;2023-07-31T03:38:29;16.35;;;9.40;;
32347;SDS011;18821;44.800;10.326;2023-07-31T03:40:55;16.92;;;9.82;;
32347;SDS011;18821;44.800;10.326;2023-07-31T03:43:21;14.63;;;9.52;;
32347;SDS011;18821;44.800;10.326;2023-07-31T03:45:47;11.82;;;9.93;;
32347;SDS011;18821;44.800;10.326;2023-07-31T03:48:14;12.73;;;9.93;;
32347;SDS011;18821;44.800;10.326;2023-07-31T03:50:40;14.38;;;9.90;;
32347;SDS011;18821;44.800;10.326;2023-07-31T03:53:06;15.52;;;11.18;;
32347;SDS011;18821;44.800;10.326;2023-07-31T03:55:32;12.52;;;11.23;;
32347;SDS011;18821;44.800;10.326;2023-07-31T03:57:58;17.67;;;11.45;;
32347;SDS011;18821;44.800;10.326;2023-07-31T04:00:26;17.45;;;12.20;;
32347;SDS011;18821;44.800;10.326;2023-07-31T04:02:52;15.45;;;11.35;;
32347;SDS011;18821;44.800;10.326;2023-07-31T04:05:18;13.45;;;11.10;;
32347;SDS011;18821;44.800;10.326;2023-07-31T04:07:44;17.10;;;12.75;;
32347;SDS011;18821;44.800;10.326;2023-07-31T04:10:10;14.50;;;12.00;;
32347;SDS011;18821;44.800;10.326;2023-07-31T04:12:36;17.98;;;12.77;;
32347;SDS011;18821;44.800;10.326;2023-07-31T04:15:02;16.55;;;11.77;;
32347;SDS011;18821;44.800;10.326;2023-07-31T04:17:29;15.80;;;11.93;;
32347;SDS011;18821;44.800;10.326;2023-07-31T04:19:55;20.42;;;13.68;;
32347;SDS011;18821;44.800;10.326;2023-07-31T04:22:21;17.92;;;12.95;;
32347;SDS011;18821;44.800;10.326;2023-07-31T04:24:47;21.38;;;13.77;;
32347;SDS011;18821;44.800;10.326;2023-07-31T04:27:13;17.75;;;14.55;;
32347;SDS011;18821;44.800;10.326;2023-07-31T04:29:39;16.33;;;14.57;;
32347;SDS011;18821;44.800;10.326;2023-07-31T04:32:07;19.90;;;15.10;;
32347;SDS011;18821;44.800;10.326;2023-07-31T04:34:33;21.35;;;15.40;;
32347;SDS011;18821;44.800;10.326;2023-07-31T04:36:59;16.75;;;13.25;;
32347;SDS011;18821;44.800;10.326;2023-07-31T04:39:26;20.13;;;13.48;;
32347;SDS011;18821;44.800;10.326;2023-07-31T04:41:52;17.35;;;13.75;;
32347;SDS011;18821;44.800;10.326;2023-07-31T04:44:18;17.80;;;14.18;;
32347;SDS011;18821;44.800;10.326;2023-07-31T04:46:44;15.10;;;12.82;;
32347;SDS011;18821;44.800;10.326;2023-07-31T04:49:10;16.98;;;13.15;;
32347;SDS011;18821;44.800;10.326;2023-07-31T04:51:36;17.40;;;13.88;;
32347;SDS011;18821;44.800;10.326;2023-07-31T04:54:02;15.60;;;11.32;;
32347;SDS011;18821;44.800;10.326;2023-07-31T04:56:29;16.67;;;12.38;;
32347;SDS011;18821;44.800;10.326;2023-07-31T04:58:55;20.90;;;12.13;;
32347;SDS011;18821;44.800;10.326;2023-07-31T05:01:21;12.77;;;10.50;;
32347;SDS011;18821;44.800;10.326;2023-07-31T05:03:46;16.45;;;10.07;;
32347;SDS011;18821;44.800;10.326;2023-07-31T05:06:12;12.85;;;8.70;;
32347;SDS011;18821;44.800;10.326;2023-07-31T05:08:40;15.25;;;9.35;;
32347;SDS011;18821;44.800;10.326;2023-07-31T05:11:06;14.05;;;9.68;;
32347;SDS011;18821;44.800;10.326;2023-07-31T05:13:32;11.00;;;8.27;;
32347;SDS011;18821;44.800;10.326;2023-07-31T05:15:58;11.77;;;7.97;;
32347;SDS011;18821;44.800;10.326;2023-07-31T05:18:24;12.07;;;8.02;;
32347;SDS011;18821;44.800;10.326;2023-07-31T05:20:50;13.43;;;8.05;;
32347;SDS011;18821;44.800;10.326;2023-07-31T05:23:16;13.90;;;8.23;;
32347;SDS011;18821;44.800;10.326;2023-07-31T05:25:42;10.00;;;7.13;;
32347;SDS011;18821;44.800;10.326;2023-07-31T05:28:08;11.85;;;7.57;;
32347;SDS011;18821;44.800;10.326;2023-07-31T05:30:34;10.57;;;7.75;;
32347;SDS011;18821;44.800;10.326;2023-07-31T05:33:00;11.63;;;6.90;;
32347;SDS011;18821;44.800;10.326;2023-07-31T05:35:26;8.18;;;6.55;;
32347;SDS011;18821;44.800;10.326;2023-07-31T05:37:52;9.70;;;6.20;;
32347;SDS011;18821;44.800;10.326;2023-07-31T05:40:18;15.10;;;6.63;;
32347;SDS011;18821;44.800;10.326;2023-07-31T05:42:44;15.43;;;6.68;;
32347;SDS011;18821;44.800;10.326;2023-07-31T05:45:10;10.30;;;6.10;;
32347;SDS011;18821;44.800;10.326;2023-07-31T05:47:36;9.77;;;6.03;;
32347;SDS011;18821;44.800;10.326;2023-07-31T05:50:02;8.93;;;5.47;;
32347;SDS011;18821;44.800;10.326;2023-07-31T05:52:28;12.02;;;5.95;;
32347;SDS011;18821;44.800;10.326;2023-07-31T05:54:54;10.52;;;6.53;;
32347;SDS011;18821;44.800;10.326;2023-07-31T05:57:20;9.00;;;4.72;;
32347;SDS011;18821;44.800;10.326;2023-07-31T05:59:46;7.20;;;5.05;;
32347;SDS011;18821;44.800;10.326;2023-07-31T06:02:12;13.18;;;5.07;;
32347;SDS011;18821;44.800;10.326;2023-07-31T06:04:38;11.27;;;4.97;;
32347;SDS011;18821;44.800;10.326;2023-07-31T06:07:04;13.13;;;4.88;;
32347;SDS011;18821;44.800;10.326;2023-07-31T06:09:30;9.52;;;5.38;;
32347;SDS011;18821;44.800;10.326;2023-07-31T06:11:56;9.18;;;5.15;;
32347;SDS011;18821;44.800;10.326;2023-07-31T06:14:22;9.02;;;5.35;;
32347;SDS011;18821;44.800;10.326;2023-07-31T06:16:49;17.95;;;5.47;;
32347;SDS011;18821;44.800;10.326;2023-07-31T06:19:15;6.10;;;4.25;;
32347;SDS011;18821;44.800;10.326;2023-07-31T06:21:40;8.50;;;4.90;;
32347;SDS011;18821;44.800;10.326;2023-07-31T06:24:08;7.18;;;4.43;;
32347;SDS011;18821;44.800;10.326;2023-07-31T06:26:34;7.90;;;4.43;;
32347;SDS011;18821;44.800;10.326;2023-07-31T06:29:00;8.40;;;4.70;;
32347;SDS011;18821;44.800;10.326;2023-07-31T06:31:26;8.73;;;4.93;;
32347;SDS011;18821;44.800;10.326;2023-07-31T06:33:52;8.00;;;4.13;;
32347;SDS011;18821;44.800;10.326;2023-07-31T06:36:19;12.65;;;5.60;;
32347;SDS011;18821;44.800;10.326;2023-07-31T06:38:45;10.48;;;5.20;;
32347;SDS011;18821;44.800;10.326;2023-07-31T06:41:11;10.23;;;5.65;;
32347;SDS011;18821;44.800;10.326;2023-07-31T06:43:37;7.18;;;4.55;;
32347;SDS011;18821;44.800;10.326;2023-07-31T06:46:06;9.45;;;4.65;;
32347;SDS011;18821;44.800;10.326;2023-07-31T06:48:33;8.65;;;4.53;;
32347;SDS011;18821;44.800;10.326;2023-07-31T06:51:00;8.95;;;5.07;;
32347;SDS011;18821;44.800;10.326;2023-07-31T06:53:26;9.35;;;5.20;;
32347;SDS011;18821;44.800;10.326;2023-07-31T06:55:52;10.15;;;6.25;;
32347;SDS011;18821;44.800;10.326;2023-07-31T06:58:18;6.97;;;4.88;;
32347;SDS011;18821;44.800;10.326;2023-07-31T07:00:44;9.68;;;5.20;;
32347;SDS011;18821;44.800;10.326;2023-07-31T07:03:10;9.10;;;4.75;;
32347;SDS011;18821;44.800;10.326;2023-07-31T07:05:36;10.55;;;5.35;;
32347;SDS011;18821;44.800;10.326;2023-07-31T07:08:02;10.95;;;5.85;;
32347;SDS011;18821;44.800;10.326;2023-07-31T07:10:29;7.47;;;4.60;;
32347;SDS011;18821;44.800;10.326;2023-07-31T07:12:55;9.60;;;4.60;;
32347;SDS011;18821;44.800;10.326;2023-07-31T07:15:21;8.98;;;5.40;;
32347;SDS011;18821;44.800;10.326;2023-07-31T07:17:47;7.55;;;5.43;;
32347;SDS011;18821;44.800;10.326;2023-07-31T07:20:13;8.40;;;6.20;;
32347;SDS011;18821;44.800;10.326;2023-07-31T07:22:40;7.82;;;5.07;;
32347;SDS011;18821;44.800;10.326;2023-07-31T07:25:08;8.88;;;4.25;;
32347;SDS011;18821;44.800;10.326;2023-07-31T07:27:34;8.23;;;4.22;;
32347;SDS011;18821;44.800;10.326;2023-07-31T07:30:00;8.68;;;4.15;;
32347;SDS011;18821;44.800;10.326;2023-07-31T07:32:26;9.88;;;4.22;;
32347;SDS011;18821;44.800;10.326;2023-07-31T07:34:52;8.00;;;4.78;;
32347;SDS011;18821;44.800;10.326;2023-07-31T07:37:18;9.20;;;4.75;;
32347;SDS011;18821;44.800;10.326;2023-07-31T07:39:44;9.00;;;4.63;;
32347;SDS011;18821;44.800;10.326;2023-07-31T07:42:12;10.00;;;4.95;;
32347;SDS011;18821;44.800;10.326;2023-07-31T07:44:39;7.40;;;4.43;;
32347;SDS011;18821;44.800;10.326;2023-07-31T07:47:05;7.25;;;4.70;;
32347;SDS011;18821;44.800;10.326;2023-07-31T07:49:32;6.75;;;4.55;;
32347;SDS011;18821;44.800;10.326;2023-07-31T07:52:02;9.15;;;5.05;;
32347;SDS011;18821;44.800;10.326;2023-07-31T07:54:28;14.70;;;4.80;;
32347;SDS011;18821;44.800;10.326;2023-07-31T07:56:55;7.60;;;4.93;;
32347;SDS011;18821;44.800;10.326;2023-07-31T07:59:21;10.48;;;5.40;;
32347;SDS011;18821;44.800;10.326;2023-07-31T08:01:47;7.82;;;5.53;;
32347;SDS011;18821;44.800;10.326;2023-07-31T08:04:13;8.63;;;5.60;;
32347;SDS011;18821;44.800;10.326;2023-07-31T08:06:39;7.22;;;4.88;;
32347;SDS011;18821;44.800;10.326;2023-07-31T08:09:05;7.30;;;5.07;;
32347;SDS011;18821;44.800;10.326;2023-07-31T08:11:32;6.97;;;4.82;;
32347;SDS011;18821;44.800;10.326;2023-07-31T08:13:58;8.20;;;5.47;;
32347;SDS011;18821;44.800;10.326;2023-07-31T08:16:24;10.30;;;5.70;;
32347;SDS011;18821;44.800;10.326;2023-07-31T08:18:50;6.25;;;5.18;;
32347;SDS011;18821;44.800;10.326;2023-07-31T08:21:16;10.85;;;5.85;;
32347;SDS011;18821;44.800;10.326;2023-07-31T08:23:42;8.60;;;4.93;;
32347;SDS011;18821;44.800;10.326;2023-07-31T08:26:14;10.57;;;5.78;;
32347;SDS011;18821;44.800;10.326;2023-07-31T08:28:41;7.85;;;4.20;;
32347;SDS011;18821;44.800;10.326;2023-07-31T08:31:07;6.63;;;3.55;;
32347;SDS011;18821;44.800;10.326;2023-07-31T08:33:33;3.67;;;2.95;;
32347;SDS011;18821;44.800;10.326;2023-07-31T08:35:59;9.05;;;3.53;;
32347;SDS011;18821;44.800;10.326;2023-07-31T08:38:26;5.13;;;2.60;;
32347;SDS011;18821;44.800;10.326;2023-07-31T08:40:56;7.88;;;3.22;;
32347;SDS011;18821;44.800;10.326;2023-07-31T08:43:24;5.47;;;3.35;;
32347;SDS011;18821;44.800;10.326;2023-07-31T08:45:52;4.82;;;3.15;;
32347;SDS011;18821;44.800;10.326;2023-07-31T08:48:19;5.38;;;3.50;;
32347;SDS011;18821;44.800;10.326;2023-07-31T08:50:46;5.65;;;3.10;;
32347;SDS011;18821;44.800;10.326;2023-07-31T08:53:13;6.63;;;2.80;;
32347;SDS011;18821;44.800;10.326;2023-07-31T08:55:38;6.00;;;2.72;;
32347;SDS011;18821;44.800;10.326;2023-07-31T08:58:06;6.85;;;2.50;;
32347;SDS011;18821;44.800;10.326;2023-07-31T09:00:32;3.42;;;2.50;;
32347;SDS011;18821;44.800;10.326;2023-07-31T09:03:02;4.22;;;2.47;;
32347;SDS011;18821;44.800;10.326;2023-07-31T09:05:33;6.40;;;2.47;;
32347;SDS011;18821;44.800;10.326;2023-07-31T09:08:00;2.72;;;1.90;;
32347;SDS011;18821;44.800;10.326;2023-07-31T09:10:29;3.72;;;2.10;;
32347;SDS011;18821;44.800;10.326;2023-07-31T09:12:55;4.95;;;2.90;;
32347;SDS011;18821;44.800;10.326;2023-07-31T09:15:21;5.00;;;2.42;;
32347;SDS011;18821;44.800;10.326;2023-07-31T09:17:49;5.90;;;2.47;;
32347;SDS011;18821;44.800;10.326;2023-07-31T09:20:27;2.70;;;2.45;;
32347;SDS011;18821;44.800;10.326;2023-07-31T09:22:53;4.45;;;3.03;;
32347;SDS011;18821;44.800;10.326;2023-07-31T09:25:24;4.53;;;3.92;;
32347;SDS011;18821;44.800;10.326;2023-07-31T09:30:21;4.60;;;2.97;;
32347;SDS011;18821;44.800;10.326;2023-07-31T09:32:48;3.45;;;2.45;;
32347;SDS011;18821;44.800;10.326;2023-07-31T09:37:52;3.40;;;2.30;;
32347;SDS011;18821;44.800;10.326;2023-07-31T09:43:13;5.97;;;3.20;;
32347;SDS011;18821;44.800;10.326;2023-07-31T09:45:43;8.40;;;4.13;;
32347;SDS011;18821;44.800;10.326;2023-07-31T09:48:11;4.28;;;3.80;;
32347;SDS011;18821;44.800;10.326;2023-07-31T09:50:42;8.25;;;4.10;;
32347;SDS011;18821;44.800;10.326;2023-07-31T09:53:12;5.13;;;3.75;;
32347;SDS011;18821;44.800;10.326;2023-07-31T09:55:39;5.47;;;4.15;;
32347;SDS011;18821;44.800;10.326;2023-07-31T09:58:07;7.35;;;4.78;;
32347;SDS011;18821;44.800;10.326;2023-07-31T10:00:34;4.90;;;4.40;;
32347;SDS011;18821;44.800;10.326;2023-07-31T10:03:02;7.63;;;4.00;;
32347;SDS011;18821;44.800;10.326;2023-07-31T10:08:11;10.30;;;5.28;;
32347;SDS011;18821;44.800;10.326;2023-07-31T10:10:45;6.78;;;4.55;;
32347;SDS011;18821;44.800;10.326;2023-07-31T10:13:11;7.43;;;4.35;;
32347;SDS011;18821;44.800;10.326;2023-07-31T10:15:38;4.82;;;4.32;;
32347;SDS011;18821;44.800;10.326;2023-07-31T10:18:06;4.40;;;4.00;;
32347;SDS011;18821;44.800;10.326;2023-07-31T10:20:32;6.63;;;4.75;;
32347;SDS011;18821;44.800;10.326;2023-07-31T10:22:59;7.03;;;4.25;;
32347;SDS011;18821;44.800;10.326;2023-07-31T10:25:26;5.10;;;3.97;;
32347;SDS011;18821;44.800;10.326;2023-07-31T10:27:53;5.80;;;4.38;;
32347;SDS011;18821;44.800;10.326;2023-07-31T10:30:24;5.53;;;3.95;;
32347;SDS011;18821;44.800;10.326;2023-07-31T10:32:54;4.25;;;3.35;;
32347;SDS011;18821;44.800;10.326;2023-07-31T10:35:21;7.57;;;3.70;;
32347;SDS011;18821;44.800;10.326;2023-07-31T10:37:48;10.18;;;4.00;;
32347;SDS011;18821;44.800;10.326;2023-07-31T10:40:24;6.85;;;3.95;;
32347;SDS011;18821;44.800;10.326;2023-07-31T10:42:55;5.65;;;3.83;;
32347;SDS011;18821;44.800;10.326;2023-07-31T10:45:36;5.38;;;3.08;;
32347;SDS011;18821;44.800;10.326;2023-07-31T10:48:03;4.97;;;3.20;;
32347;SDS011;18821;44.800;10.326;2023-07-31T10:50:38;5.03;;;2.90;;
32347;SDS011;18821;44.800;10.326;2023-07-31T10:53:10;5.82;;;3.28;;
32347;SDS011;18821;44.800;10.326;2023-07-31T10:55:52;4.80;;;2.75;;
32347;SDS011;18821;44.800;10.326;2023-07-31T10:58:19;4.40;;;2.50;;
32347;SDS011;18821;44.800;10.326;2023-07-31T11:00:46;4.50;;;3.38;;
32347;SDS011;18821;44.800;10.326;2023-07-31T11:03:18;4.93;;;3.15;;
32347;SDS011;18821;44.800;10.326;2023-07-31T11:08:28;5.93;;;3.42;;
32347;SDS011;18821;44.800;10.326;2023-07-31T11:16:11;4.43;;;2.60;;
32347;SDS011;18821;44.800;10.326;2023-07-31T11:18:39;6.28;;;3.25;;
32347;SDS011;18821;44.800;10.326;2023-07-31T11:21:06;6.32;;;3.13;;
32347;SDS011;18821;44.800;10.326;2023-07-31T11:23:33;4.50;;;2.90;;
32347;SDS011;18821;44.800;10.326;2023-07-31T11:25:59;3.40;;;2.38;;
32347;SDS011;18821;44.800;10.326;2023-07-31T11:28:25;3.53;;;2.60;;
32347;SDS011;18821;44.800;10.326;2023-07-31T11:30:51;4.40;;;3.47;;
32347;SDS011;18821;44.800;10.326;2023-07-31T11:33:17;3.33;;;2.92;;
32347;SDS011;18821;44.800;10.326;2023-07-31T11:35:44;3.55;;;2.50;;
32347;SDS011;18821;44.800;10.326;2023-07-31T11:38:27;2.90;;;2.60;;
32347;SDS011;18821;44.800;10.326;2023-07-31T11:40:54;4.55;;;2.70;;
32347;SDS011;18821;44.800;10.326;2023-07-31T11:43:22;5.82;;;4.00;;
32347;SDS011;18821;44.800;10.326;2023-07-31T11:45:55;7.60;;;3.90;;
32347;SDS011;18821;44.800;10.326;2023-07-31T11:48:24;3.60;;;3.03;;
32347;SDS011;18821;44.800;10.326;2023-07-31T11:50:57;4.35;;;3.17;;
32347;SDS011;18821;44.800;10.326;2023-07-31T11:56:10;6.93;;;3.05;;
32347;SDS011;18821;44.800;10.326;2023-07-31T11:58:38;7.13;;;2.90;;
32347;SDS011;18821;44.800;10.326;2023-07-31T12:01:06;5.05;;;3.50;;
32347;SDS011;18821;44.800;10.326;2023-07-31T12:03:33;8.32;;;3.25;;
32347;SDS011;18821;44.800;10.326;2023-07-31T12:05:59;4.43;;;3.50;;
32347;SDS011;18821;44.800;10.326;2023-07-31T12:08:26;4.03;;;2.88;;
32347;SDS011;18821;44.800;10.326;2023-07-31T12:10:52;7.90;;;3.83;;
32347;SDS011;18821;44.800;10.326;2023-07-31T12:13:22;3.85;;;3.20;;
32347;SDS011;18821;44.800;10.326;2023-07-31T12:15:53;5.57;;;3.78;;
32347;SDS011;18821;44.800;10.326;2023-07-31T12:18:25;4.40;;;3.40;;
32347;SDS011;18821;44.800;10.326;2023-07-31T12:20:56;8.80;;;3.42;;
32347;SDS011;18821;44.800;10.326;2023-07-31T12:23:31;6.03;;;3.75;;
32347;SDS011;18821;44.800;10.326;2023-07-31T12:26:01;3.50;;;3.20;;
32347;SDS011;18821;44.800;10.326;2023-07-31T12:31:12;5.63;;;3.53;;
32347;SDS011;18821;44.800;10.326;2023-07-31T12:33:40;3.85;;;3.25;;
32347;SDS011;18821;44.800;10.326;2023-07-31T12:36:17;3.92;;;3.40;;
32347;SDS011;18821;44.800;10.326;2023-07-31T12:38:47;6.68;;;3.78;;
32347;SDS011;18821;44.800;10.326;2023-07-31T12:41:15;4.75;;;3.17;;
32347;SDS011;18821;44.800;10.326;2023-07-31T12:43:41;5.28;;;3.53;;
32347;SDS011;18821;44.800;10.326;2023-07-31T12:46:09;3.50;;;3.17;;
32347;SDS011;18821;44.800;10.326;2023-07-31T12:48:35;6.85;;;3.33;;
32347;SDS011;18821;44.800;10.326;2023-07-31T12:51:02;6.55;;;3.53;;
32347;SDS011;18821;44.800;10.326;2023-07-31T12:53:29;4.65;;;2.90;;
32347;SDS011;18821;44.800;10.326;2023-07-31T12:55:55;3.75;;;2.92;;
32347;SDS011;18821;44.800;10.326;2023-07-31T12:58:22;3.05;;;2.75;;
32347;SDS011;18821;44.800;10.326;2023-07-31T13:00:48;5.75;;;2.95;;
32347;SDS011;18821;44.800;10.326;2023-07-31T13:03:14;6.82;;;2.97;;
32347;SDS011;18821;44.800;10.326;2023-07-31T13:05:40;3.60;;;3.28;;
32347;SDS011;18821;44.800;10.326;2023-07-31T13:08:06;10.50;;;3.40;;
32347;SDS011;18821;44.800;10.326;2023-07-31T13:10:32;4.45;;;3.28;;
32347;SDS011;18821;44.800;10.326;2023-07-31T13:12:58;4.88;;;3.08;;
32347;SDS011;18821;44.800;10.326;2023-07-31T13:15:24;3.95;;;3.03;;
32347;SDS011;18821;44.800;10.326;2023-07-31T13:17:50;2.83;;;2.55;;
32347;SDS011;18821;44.800;10.326;2023-07-31T13:20:17;4.75;;;3.22;;
32347;SDS011;18821;44.800;10.326;2023-07-31T13:22:42;7.20;;;3.42;;
32347;SDS011;18821;44.800;10.326;2023-07-31T13:25:08;5.25;;;3.33;;
32347;SDS011;18821;44.800;10.326;2023-07-31T13:27:37;4.00;;;3.08;;
32347;SDS011;18821;44.800;10.326;2023-07-31T13:30:03;4.63;;;3.85;;
32347;SDS011;18821;44.800;10.326;2023-07-31T13:32:30;5.10;;;3.90;;
32347;SDS011;18821;44.800;10.326;2023-07-31T13:34:56;4.60;;;3.83;;
32347;SDS011;18821;44.800;10.326;2023-07-31T13:37:22;7.10;;;4.85;;
32347;SDS011;18821;44.800;10.326;2023-07-31T13:39:48;8.23;;;3.70;;
32347;SDS011;18821;44.800;10.326;2023-07-31T13:42:14;3.65;;;3.35;;
32347;SDS011;18821;44.800;10.326;2023-07-31T13:44:40;5.50;;;3.40;;
32347;SDS011;18821;44.800;10.326;2023-07-31T13:47:07;5.25;;;3.45;;
32347;SDS011;18821;44.800;10.326;2023-07-31T13:49:33;4.53;;;3.60;;
32347;SDS011;18821;44.800;10.326;2023-07-31T13:52:01;7.10;;;3.85;;
32347;SDS011;18821;44.800;10.326;2023-07-31T13:54:27;4.57;;;3.38;;
32347;SDS011;18821;44.800;10.326;2023-07-31T13:56:53;10.43;;;4.13;;
32347;SDS011;18821;44.800;10.326;2023-07-31T13:59:20;5.18;;;3.50;;
32347;SDS011;18821;44.800;10.326;2023-07-31T14:01:46;4.35;;;3.50;;
32347;SDS011;18821;44.800;10.326;2023-07-31T14:04:13;6.18;;;3.60;;
32347;SDS011;18821;44.800;10.326;2023-07-31T14:06:39;4.40;;;3.22;;
32347;SDS011;18821;44.800;10.326;2023-07-31T14:09:05;6.35;;;3.58;;
32347;SDS011;18821;44.800;10.326;2023-07-31T14:11:31;6.40;;;3.50;;
32347;SDS011;18821;44.800;10.326;2023-07-31T14:13:58;6.18;;;3.58;;
32347;SDS011;18821;44.800;10.326;2023-07-31T14:16:24;3.67;;;3.08;;
32347;SDS011;18821;44.800;10.326;2023-07-31T14:18:50;3.70;;;3.40;;
32347;SDS011;18821;44.800;10.326;2023-07-31T14:21:16;5.63;;;3.58;;
32347;SDS011;18821;44.800;10.326;2023-07-31T14:23:42;4.25;;;3.25;;
32347;SDS011;18821;44.800;10.326;2023-07-31T14:26:08;6.57;;;3.08;;
32347;SDS011;18821;44.800;10.326;2023-07-31T14:28:34;3.90;;;3.20;;
32347;SDS011;18821;44.800;10.326;2023-07-31T14:31:00;9.50;;;3.67;;
32347;SDS011;18821;44.800;10.326;2023-07-31T14:33:26;10.88;;;3.13;;
32347;SDS011;18821;44.800;10.326;2023-07-31T14:35:52;5.72;;;3.47;;
32347;SDS011;18821;44.800;10.326;2023-07-31T14:38:18;6.18;;;3.75;;
32347;SDS011;18821;44.800;10.326;2023-07-31T14:40:44;3.88;;;3.30;;
32347;SDS011;18821;44.800;10.326;2023-07-31T14:43:10;4.85;;;3.22;;
32347;SDS011;18821;44.800;10.326;2023-07-31T14:45:36;9.05;;;3.33;;
32347;SDS011;18821;44.800;10.326;2023-07-31T14:48:02;4.03;;;3.60;;
32347;SDS011;18821;44.800;10.326;2023-07-31T14:50:28;4.00;;;3.38;;
32347;SDS011;18821;44.800;10.326;2023-07-31T14:52:54;7.35;;;3.38;;
32347;SDS011;18821;44.800;10.326;2023-07-31T14:55:20;4.70;;;3.63;;
32347;SDS011;18821;44.800;10.326;2023-07-31T14:57:46;6.45;;;3.42;;
32347;SDS011;18821;44.800;10.326;2023-07-31T15:00:12;6.40;;;3.42;;